# Tabular Observed and Forecast Hydrograph Information
#
# Location: Klamath River - Below JC Boyle Power Plant (BOYO3)
#
# File Generation Time: 09/06/2026 at 07:08 AM PDT
# Data Interval: 1 Hour
#
# Most Recent Date & Time of Maximum Observed: 09/01/2026 at 03:00 PM PDT
# Maximum Observed Stage: 4.30 Feet
# Maximum Observed Flow: 1228 cfs
#
# Earliest Date & Time of Maximum Forecast: 09/06/2026 at 04:00 PM PDT
# Maximum Forecast Stage: 4.02 Feet
# Maximum Forecast Flow: 1010 cfs
#
# OBSERVED
#
# Date & Time (Local) Stage (Feet) Flow (cfs) Trend Observed Status
# ---------------------------------------------------------------------------------
09/01/2026 07 AM PDT 4.28 1212 Not Applicable
09/01/2026 08 AM PDT 4.28 1212 0 Not Applicable
09/01/2026 09 AM PDT 4.29 1220 + Not Applicable
09/01/2026 10 AM PDT 4.28 1212 - Not Applicable
09/01/2026 11 AM PDT 4.28 1212 0 Not Applicable
09/01/2026 12 PM PDT 4.29 1220 + Not Applicable
09/01/2026 01 PM PDT 4.29 1220 0 Not Applicable
09/01/2026 02 PM PDT 4.30 1228 + Not Applicable
09/01/2026 03 PM PDT 4.30 1228 0 Not Applicable
09/01/2026 04 PM PDT 4.28 1212 - Not Applicable
09/01/2026 05 PM PDT 4.25 1187 - Not Applicable
09/01/2026 06 PM PDT 4.22 1163 - Not Applicable
09/01/2026 07 PM PDT 4.19 1140 - Not Applicable
09/01/2026 08 PM PDT 4.18 1132 - Not Applicable
09/01/2026 09 PM PDT 4.14 1101 - Not Applicable
09/01/2026 10 PM PDT 4.11 1078 - Not Applicable
09/01/2026 11 PM PDT 4.11 1078 0 Not Applicable
09/02/2026 12 AM PDT 4.11 1078 0 Not Applicable
09/02/2026 01 AM PDT 4.11 1078 0 Not Applicable
09/02/2026 02 AM PDT 4.11 1078 0 Not Applicable
09/02/2026 03 AM PDT 4.11 1078 0 Not Applicable
09/02/2026 04 AM PDT 4.11 1078 0 Not Applicable
09/02/2026 05 AM PDT 4.11 1078 0 Not Applicable
09/02/2026 06 AM PDT 4.11 1078 0 Not Applicable
09/02/2026 07 AM PDT 4.11 1078 0 Not Applicable
09/02/2026 08 AM PDT 4.11 1078 0 Not Applicable
09/02/2026 09 AM PDT 4.11 1078 0 Not Applicable
09/02/2026 10 AM PDT 4.11 1078 0 Not Applicable
09/02/2026 11 AM PDT 4.11 1078 0 Not Applicable
09/02/2026 12 PM PDT 4.11 1078 0 Not Applicable
09/02/2026 01 PM PDT 4.11 1078 0 Not Applicable
09/02/2026 02 PM PDT 4.11 1078 0 Not Applicable
09/02/2026 03 PM PDT 4.10 1070 - Not Applicable
09/02/2026 04 PM PDT 4.10 1070 0 Not Applicable
09/02/2026 05 PM PDT 4.07 1047 - Not Applicable
09/02/2026 06 PM PDT 4.06 1040 - Not Applicable
09/02/2026 07 PM PDT 4.02 1010 - Not Applicable
09/02/2026 08 PM PDT 4.00 996 - Not Applicable
09/02/2026 09 PM PDT 3.96 966 - Not Applicable
09/02/2026 10 PM PDT 3.93 944 - Not Applicable
09/02/2026 11 PM PDT 3.93 944 0 Not Applicable
09/03/2026 12 AM PDT 3.93 944 0 Not Applicable
09/03/2026 01 AM PDT 3.93 944 0 Not Applicable
09/03/2026 02 AM PDT 3.93 944 0 Not Applicable
09/03/2026 03 AM PDT 3.92 937 - Not Applicable
09/03/2026 04 AM PDT 3.92 937 0 Not Applicable
09/03/2026 05 AM PDT 3.93 944 + Not Applicable
09/03/2026 06 AM PDT 3.92 937 - Not Applicable
09/03/2026 07 AM PDT 3.92 937 0 Not Applicable
09/03/2026 08 AM PDT 3.92 937 0 Not Applicable
09/03/2026 09 AM PDT 3.93 944 + Not Applicable
09/03/2026 10 AM PDT 3.93 944 0 Not Applicable
09/03/2026 11 AM PDT 3.93 944 0 Not Applicable
09/03/2026 12 PM PDT 3.93 944 0 Not Applicable
09/03/2026 01 PM PDT 3.93 944 0 Not Applicable
09/03/2026 02 PM PDT 3.93 944 0 Not Applicable
09/03/2026 03 PM PDT 3.93 944 0 Not Applicable
09/03/2026 04 PM PDT 3.93 944 0 Not Applicable
09/03/2026 05 PM PDT 3.93 944 0 Not Applicable
09/03/2026 06 PM PDT 3.93 944 0 Not Applicable
09/03/2026 07 PM PDT 3.93 944 0 Not Applicable
09/03/2026 08 PM PDT 3.92 937 - Not Applicable
09/03/2026 09 PM PDT 3.93 944 + Not Applicable
09/03/2026 10 PM PDT 3.92 937 - Not Applicable
09/03/2026 11 PM PDT 3.92 937 0 Not Applicable
09/04/2026 12 AM PDT 3.92 937 0 Not Applicable
09/04/2026 01 AM PDT 3.93 944 + Not Applicable
09/04/2026 02 AM PDT 3.92 937 - Not Applicable
09/04/2026 03 AM PDT 3.92 937 0 Not Applicable
09/04/2026 04 AM PDT 3.92 937 0 Not Applicable
09/04/2026 05 AM PDT 3.92 937 0 Not Applicable
09/04/2026 06 AM PDT 3.92 937 0 Not Applicable
09/04/2026 07 AM PDT 3.91 930 - Not Applicable
09/04/2026 08 AM PDT 3.92 937 + Not Applicable
09/04/2026 09 AM PDT 3.92 937 0 Not Applicable
09/04/2026 10 AM PDT 3.92 937 0 Not Applicable
09/04/2026 11 AM PDT 3.92 937 0 Not Applicable
09/04/2026 12 PM PDT 3.92 937 0 Not Applicable
09/04/2026 01 PM PDT 3.92 937 0 Not Applicable
09/04/2026 02 PM PDT 3.91 930 - Not Applicable
09/04/2026 03 PM PDT 3.92 937 + Not Applicable
09/04/2026 04 PM PDT 3.92 937 0 Not Applicable
09/04/2026 05 PM PDT 3.92 937 0 Not Applicable
09/04/2026 06 PM PDT 3.92 937 0 Not Applicable
09/04/2026 07 PM PDT 3.92 937 0 Not Applicable
09/04/2026 08 PM PDT 3.92 937 0 Not Applicable
09/04/2026 09 PM PDT 3.92 937 0 Not Applicable
09/04/2026 10 PM PDT 3.92 937 0 Not Applicable
09/04/2026 11 PM PDT 3.91 930 - Not Applicable
09/05/2026 12 AM PDT 3.92 937 + Not Applicable
09/05/2026 01 AM PDT 3.92 937 0 Not Applicable
09/05/2026 02 AM PDT 3.92 937 0 Not Applicable
09/05/2026 03 AM PDT 3.92 937 0 Not Applicable
09/05/2026 04 AM PDT 3.91 930 - Not Applicable
09/05/2026 05 AM PDT 3.92 937 + Not Applicable
09/05/2026 06 AM PDT 3.92 937 0 Not Applicable
09/05/2026 07 AM PDT 3.91 930 - Not Applicable
09/05/2026 08 AM PDT 3.92 937 + Not Applicable
09/05/2026 09 AM PDT 3.91 930 - Not Applicable
09/05/2026 10 AM PDT 3.92 937 + Not Applicable
09/05/2026 11 AM PDT 3.94 951 + Not Applicable
09/05/2026 12 PM PDT 3.95 959 + Not Applicable
09/05/2026 01 PM PDT 3.98 981 + Not Applicable
09/05/2026 02 PM PDT 3.96 966 - Not Applicable
09/05/2026 03 PM PDT 3.95 959 - Not Applicable
09/05/2026 04 PM PDT 3.94 951 - Not Applicable
09/05/2026 05 PM PDT 3.94 951 0 Not Applicable
09/05/2026 06 PM PDT 3.94 951 0 Not Applicable
09/05/2026 07 PM PDT 3.94 951 0 Not Applicable
09/05/2026 08 PM PDT 3.94 951 0 Not Applicable
09/05/2026 09 PM PDT 3.94 951 0 Not Applicable
09/05/2026 10 PM PDT 3.94 951 0 Not Applicable
09/05/2026 11 PM PDT 3.94 951 0 Not Applicable
09/06/2026 12 AM PDT 3.93 944 - Not Applicable
09/06/2026 01 AM PDT 3.94 951 + Not Applicable
09/06/2026 02 AM PDT 3.95 959 + Not Applicable
09/06/2026 03 AM PDT 3.95 959 0 Not Applicable
09/06/2026 04 AM PDT 3.94 951 - Not Applicable
09/06/2026 05 AM PDT 3.94 951 0 Not Applicable
09/06/2026 06 AM PDT 3.94 951 0 Not Applicable
09/06/2026 07 AM PDT 3.94 951 0 Not Applicable
#
# FORECAST
#
# Date & Time (Local) Stage (Feet) Flow (cfs) Trend Forecast Status
# ---------------------------------------------------------------------------------
09/06/2026 08 AM PDT 3.94 951 Not Applicable
09/06/2026 09 AM PDT 3.95 959 + Not Applicable
09/06/2026 10 AM PDT 3.96 966 + Not Applicable
09/06/2026 11 AM PDT 3.97 973 + Not Applicable
09/06/2026 12 PM PDT 3.98 981 + Not Applicable
09/06/2026 01 PM PDT 4.00 996 + Not Applicable
09/06/2026 02 PM PDT 4.00 996 0 Not Applicable
09/06/2026 03 PM PDT 4.01 1003 + Not Applicable
09/06/2026 04 PM PDT 4.02 1010 + Not Applicable
09/06/2026 05 PM PDT 4.02 1010 0 Not Applicable
09/06/2026 06 PM PDT 4.02 1010 0 Not Applicable
09/06/2026 07 PM PDT 4.02 1010 0 Not Applicable
09/06/2026 08 PM PDT 4.02 1010 0 Not Applicable
09/06/2026 09 PM PDT 4.01 1003 - Not Applicable
09/06/2026 10 PM PDT 4.01 1003 0 Not Applicable
09/06/2026 11 PM PDT 4.01 1003 0 Not Applicable
09/07/2026 12 AM PDT 4.00 996 - Not Applicable
09/07/2026 01 AM PDT 4.00 996 0 Not Applicable
09/07/2026 02 AM PDT 3.99 988 - Not Applicable
09/07/2026 03 AM PDT 3.99 988 0 Not Applicable
09/07/2026 04 AM PDT 3.98 981 - Not Applicable
09/07/2026 05 AM PDT 3.98 981 0 Not Applicable
09/07/2026 06 AM PDT 3.98 981 0 Not Applicable
09/07/2026 07 AM PDT 3.97 973 - Not Applicable
09/07/2026 08 AM PDT 3.97 973 0 Not Applicable
09/07/2026 09 AM PDT 3.96 966 - Not Applicable
09/07/2026 10 AM PDT 3.96 966 0 Not Applicable
09/07/2026 11 AM PDT 3.96 966 0 Not Applicable
09/07/2026 12 PM PDT 3.96 966 0 Not Applicable
09/07/2026 01 PM PDT 3.96 966 0 Not Applicable
09/07/2026 02 PM PDT 3.95 959 - Not Applicable
09/07/2026 03 PM PDT 3.95 959 0 Not Applicable
09/07/2026 04 PM PDT 3.95 959 0 Not Applicable
09/07/2026 05 PM PDT 3.95 959 0 Not Applicable
09/07/2026 06 PM PDT 3.95 959 0 Not Applicable
09/07/2026 07 PM PDT 3.95 959 0 Not Applicable
09/07/2026 08 PM PDT 3.95 959 0 Not Applicable
09/07/2026 09 PM PDT 3.95 959 0 Not Applicable
09/07/2026 10 PM PDT 3.95 959 0 Not Applicable
09/07/2026 11 PM PDT 3.95 959 0 Not Applicable
09/08/2026 12 AM PDT 3.95 959 0 Not Applicable
09/08/2026 01 AM PDT 3.95 959 0 Not Applicable
09/08/2026 02 AM PDT 3.96 966 + Not Applicable
09/08/2026 03 AM PDT 3.96 966 0 Not Applicable
09/08/2026 04 AM PDT 3.96 966 0 Not Applicable
09/08/2026 05 AM PDT 3.96 966 0 Not Applicable
09/08/2026 06 AM PDT 3.96 966 0 Not Applicable
09/08/2026 07 AM PDT 3.96 966 0 Not Applicable
09/08/2026 08 AM PDT 3.96 966 0 Not Applicable
09/08/2026 09 AM PDT 3.96 966 0 Not Applicable
09/08/2026 10 AM PDT 3.96 966 0 Not Applicable
09/08/2026 11 AM PDT 3.96 966 0 Not Applicable
09/08/2026 12 PM PDT 3.96 966 0 Not Applicable
09/08/2026 01 PM PDT 3.96 966 0 Not Applicable
09/08/2026 02 PM PDT 3.96 966 0 Not Applicable
09/08/2026 03 PM PDT 3.96 966 0 Not Applicable
09/08/2026 04 PM PDT 3.96 966 0 Not Applicable
09/08/2026 05 PM PDT 3.96 966 0 Not Applicable
09/08/2026 06 PM PDT 3.96 966 0 Not Applicable
09/08/2026 07 PM PDT 3.96 966 0 Not Applicable
09/08/2026 08 PM PDT 3.96 966 0 Not Applicable
09/08/2026 09 PM PDT 3.96 966 0 Not Applicable
09/08/2026 10 PM PDT 3.96 966 0 Not Applicable
09/08/2026 11 PM PDT 3.97 973 + Not Applicable
09/09/2026 12 AM PDT 3.97 973 0 Not Applicable
09/09/2026 01 AM PDT 3.97 973 0 Not Applicable
09/09/2026 02 AM PDT 3.97 973 0 Not Applicable
09/09/2026 03 AM PDT 3.97 973 0 Not Applicable
09/09/2026 04 AM PDT 3.97 973 0 Not Applicable
09/09/2026 05 AM PDT 3.98 981 + Not Applicable
09/09/2026 06 AM PDT 3.98 981 0 Not Applicable
09/09/2026 07 AM PDT 3.98 981 0 Not Applicable
09/09/2026 08 AM PDT 3.98 981 0 Not Applicable
09/09/2026 09 AM PDT 3.98 981 0 Not Applicable
09/09/2026 10 AM PDT 3.98 981 0 Not Applicable
09/09/2026 11 AM PDT 3.98 981 0 Not Applicable
09/09/2026 12 PM PDT 3.98 981 0 Not Applicable
09/09/2026 01 PM PDT 3.98 981 0 Not Applicable
09/09/2026 02 PM PDT 3.98 981 0 Not Applicable
09/09/2026 03 PM PDT 3.98 981 0 Not Applicable
09/09/2026 04 PM PDT 3.98 981 0 Not Applicable
09/09/2026 05 PM PDT 3.98 981 0 Not Applicable
09/09/2026 06 PM PDT 3.98 981 0 Not Applicable
09/09/2026 07 PM PDT 3.98 981 0 Not Applicable
09/09/2026 08 PM PDT 3.98 981 0 Not Applicable
09/09/2026 09 PM PDT 3.98 981 0 Not Applicable
09/09/2026 10 PM PDT 3.98 981 0 Not Applicable
09/09/2026 11 PM PDT 3.98 981 0 Not Applicable
09/10/2026 12 AM PDT 3.98 981 0 Not Applicable
09/10/2026 01 AM PDT 3.99 988 + Not Applicable
09/10/2026 02 AM PDT 3.99 988 0 Not Applicable
09/10/2026 03 AM PDT 3.99 988 0 Not Applicable
09/10/2026 04 AM PDT 3.99 988 0 Not Applicable
09/10/2026 05 AM PDT 3.99 988 0 Not Applicable
09/10/2026 06 AM PDT 3.99 988 0 Not Applicable
09/10/2026 07 AM PDT 3.99 988 0 Not Applicable
09/10/2026 08 AM PDT 3.99 988 0 Not Applicable
09/10/2026 09 AM PDT 3.99 988 0 Not Applicable
09/10/2026 10 AM PDT 3.99 988 0 Not Applicable
09/10/2026 11 AM PDT 3.99 988 0 Not Applicable
09/10/2026 12 PM PDT 3.99 988 0 Not Applicable
09/10/2026 01 PM PDT 3.99 988 0 Not Applicable
09/10/2026 02 PM PDT 3.99 988 0 Not Applicable
09/10/2026 03 PM PDT 4.00 996 + Not Applicable
09/10/2026 04 PM PDT 4.00 996 0 Not Applicable
09/10/2026 05 PM PDT 4.00 996 0 Not Applicable
09/10/2026 06 PM PDT 4.00 996 0 Not Applicable
09/10/2026 07 PM PDT 4.00 996 0 Not Applicable
09/10/2026 08 PM PDT 4.00 996 0 Not Applicable
09/10/2026 09 PM PDT 4.00 996 0 Not Applicable
09/10/2026 10 PM PDT 4.00 996 0 Not Applicable
09/10/2026 11 PM PDT 4.00 996 0 Not Applicable
09/11/2026 12 AM PDT 4.00 996 0 Not Applicable
09/11/2026 01 AM PDT 4.00 996 0 Not Applicable
09/11/2026 02 AM PDT 4.01 1003 + Not Applicable
09/11/2026 03 AM PDT 4.01 1003 0 Not Applicable
09/11/2026 04 AM PDT 4.01 1003 0 Not Applicable
09/11/2026 05 AM PDT 4.01 1003 0 Not Applicable
#
# NOTE 1: Stages are rounded to the nearest hundredth (.01) of a foot.
# NOTE 2: Flows are rounded to the nearest (1) cfs.
# NOTE 3: Trends are determined using hourly change in unrounded stage and flow.
# NOTE 4: Maximum Values are determined using unrounded stage and flow.
|